Beatrice, NE

7:40 PM CST on December 05, 2016 (GMT -0600)
Beatrice Municipal | | Change Station

Elev 1322 ft 40.30 °N, 96.75 °W | Updated 5 minutes ago

Clear
Clear
43 °F
Feels Like 41 °F
N
4
Wind Variable Wind from SSE

Today
High -- | Low -- °F
--% Chance of Precip.
Yesterday
High -- | Low -- °F
Precip. -- in
Pressure 29.70 in
Visibility 10.0 miles
Clouds Clear
Windchill 41 °F
Dew Point 34 °F
Humidity 71%
Rainfall 0.00 in
Snow Depth Not available.
7:34 AM 5:00 PM
Waxing Crescent, 36% visible
METAR KBIE 060135Z AUTO 15003KT 10SM CLR 06/01 A2970 RMK AO2 T00590010
Pressure 29.70 in
Visibility 10.0 miles
Clouds Clear
Windchill 41 °F
Dew Point 34 °F
Humidity 71%
Rainfall 0.00 in
Snow Depth Not available.
7:34 AM 5:00 PM
Waxing Crescent, 36% visible
METAR KBIE 060135Z AUTO 15003KT 10SM CLR 06/01 A2970 RMK AO2 T00590010

10-Day Weather Forecast

Almanac

Astronomy

Dec. 05, 2016 Rise Set
Actual Time
Civil Twilight
Nautical Twilight
Astronomical Twilight
Moon
Length of Visible Light
Length of Day
Tomorrow will be .
, % of the Moon is Illuminated

Today's Extremes

State Highs State Lows

Community

WunderPhotos

Upload Photos

1,955,893 photos uploaded!

WunderBlog® & News

Nearby

Air Quality

  Air Quality AQ Index Pollutant
Not available.

Snow Depth

Station Depth Elevation

Earthquake Activity

City Distance Mag. Time & Date
Minimum magnitude displayed is 2.5.

Coastal Water Temperatures

Place Temperature

Stations

Nearby Weather Stations

Station Location Temp. Windchill Dew Point Humidity Wind Precip. Elev Updated Type
                   

Watches & Warnings

There are currently no watches in effect.